Time;durP1;ratioP1;P1;durP2;ratioP2;P2;SDS_P1;SDS_P2;PMS_P1;PMS_P2;Temp;Humidity;BMP_temperature;BMP_pressure;BME280_temperature;BME280_humidity;BME280_pressure;Samples;Min_cycle;Max_cycle;Signal;HPM_P1;HPM_P2
2022/04/20 00:02:22;;;;;;;10.70;10.10;;;10.00;53.90;;;;;;5115365;28;20233;-55
2022/04/20 00:04:48;;;;;;;11.40;10.52;;;10.00;53.40;;;;;;5115411;28;20279;-54
2022/04/20 00:07:15;;;;;;;11.82;11.00;;;10.00;54.30;;;;;;5115514;28;20283;-54
2022/04/20 00:09:42;;;;;;;11.30;10.45;;;10.00;54.60;;;;;;5115577;28;20242;-55
2022/04/20 00:12:10;;;;;;;11.45;10.65;;;10.00;54.30;;;;;;5115445;28;20212;-55
2022/04/20 00:14:37;;;;;;;11.50;10.80;;;10.00;53.80;;;;;;5114054;28;20209;-54
2022/04/20 00:17:06;;;;;;;10.60;9.90;;;10.00;55.30;;;;;;5115205;28;20208;-55
2022/04/20 00:19:32;;;;;;;11.52;10.68;;;9.90;54.90;;;;;;5115008;28;20243;-55
2022/04/20 00:21:59;;;;;;;12.00;11.10;;;10.00;54.90;;;;;;5115273;28;20237;-55
2022/04/20 00:24:27;;;;;;;11.45;10.75;;;9.90;56.00;;;;;;5115259;28;20674;-54
2022/04/20 00:26:53;;;;;;;12.25;11.35;;;9.90;55.50;;;;;;5115164;28;20297;-54
2022/04/20 00:29:20;;;;;;;12.00;11.20;;;9.90;55.40;;;;;;5114012;28;20650;-54
2022/04/20 00:31:47;;;;;;;11.48;10.63;;;9.80;56.60;;;;;;5114986;27;20565;-54
2022/04/20 00:34:15;;;;;;;12.55;11.55;;;9.80;56.40;;;;;;5114930;28;20216;-54
2022/04/20 00:36:42;;;;;;;12.30;11.40;;;9.70;57.00;;;;;;5115071;28;20698;-55
2022/04/20 00:39:10;;;;;;;11.63;10.85;;;9.70;57.80;;;;;;5114933;28;20234;-55
2022/04/20 00:41:37;;;;;;;11.95;10.98;;;9.60;57.60;;;;;;5114954;28;20724;-55
2022/04/20 00:44:05;;;;;;;12.95;12.05;;;9.50;58.50;;;;;;5113363;28;20236;-55
2022/04/20 00:46:33;;;;;;;12.05;11.20;;;9.50;57.70;;;;;;5114644;28;20208;-54
2022/04/20 00:49:02;;;;;;;12.50;11.68;;;9.40;59.10;;;;;;5114677;28;20297;-54
2022/04/20 00:51:31;;;;;;;12.68;11.77;;;9.40;57.70;;;;;;5114731;28;20197;-53
2022/04/20 00:54:00;;;;;;;14.90;13.68;;;9.40;57.70;;;;;;5114718;28;20210;-54
2022/04/20 00:56:27;;;;;;;11.77;10.98;;;9.40;58.70;;;;;;5114637;28;20615;-55
2022/04/20 00:58:54;;;;;;;12.10;11.30;;;9.40;58.20;;;;;;5114359;28;20252;-54
2022/04/20 01:01:21;;;;;;;12.45;11.45;;;9.40;58.30;;;;;;5113511;28;20209;-54
2022/04/20 01:03:48;;;;;;;11.77;10.98;;;9.40;57.50;;;;;;5113311;28;20235;-55
2022/04/20 01:06:15;;;;;;;12.18;11.27;;;9.40;57.00;;;;;;5114320;28;20659;-54
2022/04/20 01:08:45;;;;;;;12.25;11.45;;;9.50;56.90;;;;;;5114280;28;20210;-54
2022/04/20 01:11:12;;;;;;;11.73;10.93;;;9.40;57.30;;;;;;5114183;28;20204;-54
2022/04/20 01:13:39;;;;;;;12.05;11.18;;;9.40;57.10;;;;;;5113994;28;20225;-54
2022/04/20 01:16:06;;;;;;;11.70;10.90;;;9.40;56.70;;;;;;5112780;28;20205;-55
2022/04/20 01:18:33;;;;;;;11.82;10.98;;;9.40;58.00;;;;;;5113943;27;20713;-54
2022/04/20 01:21:02;;;;;;;11.88;11.15;;;9.40;57.70;;;;;;5113874;28;20324;-53
2022/04/20 01:23:30;;;;;;;16.67;11.10;;;9.30;58.50;;;;;;5113941;28;20261;-53
2022/04/20 01:25:57;;;;;;;12.05;11.32;;;9.20;58.20;;;;;;5113844;28;20225;-55
2022/04/20 01:28:24;;;;;;;12.80;11.70;;;9.20;59.50;;;;;;5114053;28;20209;-54
2022/04/20 01:30:51;;;;;;;11.63;10.85;;;9.20;58.10;;;;;;5112497;28;20210;-54
2022/04/20 01:33:17;;;;;;;11.98;11.13;;;9.10;58.80;;;;;;5113661;28;20210;-53
2022/04/20 01:35:44;;;;;;;12.27;11.40;;;9.10;58.70;;;;;;5113594;28;20227;-54
2022/04/20 01:38:12;;;;;;;12.43;11.43;;;8.90;60.70;;;;;;5113736;28;20549;-55
2022/04/20 01:40:39;;;;;;;12.05;11.23;;;8.80;60.20;;;;;;5113755;28;20692;-56
2022/04/20 01:43:07;;;;;;;11.93;11.10;;;8.80;60.70;;;;;;5113689;28;20841;-56
2022/04/20 01:45:33;;;;;;;11.90;11.10;;;8.80;60.10;;;;;;5112416;28;20237;-56
2022/04/20 01:48:00;;;;;;;11.55;10.85;;;8.80;59.30;;;;;;5113446;28;20204;-55
2022/04/20 01:50:27;;;;;;;12.57;11.70;;;8.80;59.80;;;;;;5113604;28;20239;-54
2022/04/20 01:52:54;;;;;;;12.65;11.65;;;8.70;60.50;;;;;;5113584;28;20267;-55
2022/04/20 01:55:23;;;;;;;11.48;10.65;;;8.60;61.10;;;;;;5113448;28;20232;-55
2022/04/20 01:57:49;;;;;;;12.60;11.70;;;8.60;60.10;;;;;;5113590;28;20201;-56
2022/04/20 02:00:17;;;;;;;12.40;11.52;;;8.70;59.50;;;;;;5112171;28;20197;-55
2022/04/20 02:02:43;;;;;;;12.52;11.27;;;8.60;60.40;;;;;;5113160;28;20323;-55
2022/04/20 02:05:12;;;;;;;12.73;11.83;;;8.60;60.00;;;;;;5113507;28;20292;-56
2022/04/20 02:07:39;;;;;;;12.20;11.45;;;8.60;59.90;;;;;;5113218;28;20457;-56
2022/04/20 02:10:07;;;;;;;12.30;11.40;;;8.70;59.40;;;;;;5113460;28;20210;-56
2022/04/20 02:12:36;;;;;;;12.30;11.40;;;8.60;61.70;;;;;;5113330;28;20241;-56
2022/04/20 02:15:03;;;;;;;12.45;11.65;;;8.60;60.00;;;;;;5111922;28;20287;-54
2022/04/20 02:17:30;;;;;;;11.98;11.18;;;8.60;61.40;;;;;;5113240;28;20229;-56
2022/04/20 02:19:59;;;;;;;11.82;11.02;;;8.60;60.10;;;;;;5113014;28;20232;-56
2022/04/20 02:22:26;;;;;;;11.90;11.10;;;8.60;60.20;;;;;;5113038;28;20200;-55
2022/04/20 02:24:54;;;;;;;12.75;11.85;;;8.60;60.60;;;;;;5113118;28;20216;-55
2022/04/20 02:27:21;;;;;;;12.10;11.30;;;8.50;60.90;;;;;;5113248;28;20288;-56
2022/04/20 02:29:49;;;;;;;12.43;11.60;;;8.40;61.70;;;;;;5111820;28;20742;-55
2022/04/20 02:32:16;;;;;;;11.98;11.18;;;8.30;62.50;;;;;;5113056;28;20637;-56
2022/04/20 02:34:43;;;;;;;12.60;11.80;;;8.20;62.50;;;;;;5112917;28;20215;-55
2022/04/20 02:37:10;;;;;;;12.55;11.55;;;8.20;62.30;;;;;;5113089;28;20306;-54
2022/04/20 02:39:38;;;;;;;11.48;10.73;;;8.10;62.40;;;;;;5113180;28;20201;-56
2022/04/20 02:42:06;;;;;;;12.63;11.70;;;8.10;63.50;;;;;;5113134;28;20239;-55
2022/04/20 02:44:33;;;;;;;12.75;11.95;;;8.00;63.00;;;;;;5111688;28;20238;-55
2022/04/20 02:47:02;;;;;;;11.73;11.02;;;8.10;62.40;;;;;;5113022;28;20299;-56
2022/04/20 02:49:29;;;;;;;11.95;11.07;;;8.10;62.20;;;;;;5112579;28;20750;-55
2022/04/20 02:51:56;;;;;;;12.15;11.23;;;8.00;62.80;;;;;;5112956;28;20199;-55
2022/04/20 02:54:22;;;;;;;12.70;11.82;;;8.00;61.90;;;;;;5112894;28;20211;-55
2022/04/20 02:56:49;;;;;;;12.07;11.18;;;8.00;62.50;;;;;;5112911;28;20201;-56
2022/04/20 02:59:16;;;;;;;12.13;11.32;;;8.00;62.10;;;;;;5111497;28;20247;-55
2022/04/20 03:01:43;;;;;;;12.43;11.60;;;8.00;62.90;;;;;;5112783;28;20291;-54
2022/04/20 03:04:12;;;;;;;12.27;11.48;;;8.00;61.50;;;;;;5112427;28;20321;-55
2022/04/20 03:06:39;;;;;;;11.88;11.07;;;7.90;62.70;;;;;;5112855;28;20204;-56
2022/04/20 03:09:06;;;;;;;12.27;11.45;;;7.90;62.10;;;;;;5112731;28;20210;-54
2022/04/20 03:11:33;;;;;;;10.88;10.23;;;8.00;61.30;;;;;;5112886;28;20235;-55
2022/04/20 03:14:00;;;;;;;11.80;11.07;;;7.90;63.10;;;;;;5111959;28;20206;-54
2022/04/20 03:16:26;;;;;;;12.40;11.55;;;7.90;61.60;;;;;;5112181;28;20702;-55
2022/04/20 03:18:53;;;;;;;12.52;11.68;;;8.00;61.30;;;;;;5112365;28;20298;-55
2022/04/20 03:21:21;;;;;;;12.30;11.40;;;8.00;61.30;;;;;;5112674;28;20201;-56
2022/04/20 03:23:48;;;;;;;10.85;10.15;;;8.00;60.90;;;;;;5112677;28;20265;-55
2022/04/20 03:26:15;;;;;;;11.50;10.80;;;8.10;60.70;;;;;;5112614;28;20626;-55
2022/04/20 03:28:42;;;;;;;12.27;11.27;;;8.00;62.90;;;;;;5115697;28;20793;-56
2022/04/20 03:31:09;;;;;;;10.98;10.25;;;7.90;61.50;;;;;;5114923;28;20247;-56
2022/04/20 03:33:37;;;;;;;11.80;10.95;;;7.90;61.50;;;;;;5116319;28;20200;-56
2022/04/20 03:36:05;;;;;;;12.35;11.45;;;7.90;61.30;;;;;;5116292;28;20207;-56
2022/04/20 03:38:34;;;;;;;11.48;10.68;;;7.90;62.00;;;;;;5116193;28;20246;-55
2022/04/20 03:41:02;;;;;;;10.32;9.73;;;7.80;61.40;;;;;;5116219;28;20331;-55
2022/04/20 03:43:29;;;;;;;9.32;8.63;;;7.70;61.30;;;;;;5116062;28;20227;-56
2022/04/20 03:45:56;;;;;;;11.27;10.48;;;7.80;61.30;;;;;;5114599;28;20204;-56
2022/04/20 03:48:23;;;;;;;11.05;10.25;;;7.70;62.90;;;;;;5115766;28;20206;-54
2022/04/20 03:50:50;;;;;;;10.90;10.20;;;7.60;62.30;;;;;;5116072;28;20200;-56
2022/04/20 03:53:18;;;;;;;10.02;9.23;;;7.50;63.20;;;;;;5115855;28;20572;-55
2022/04/20 03:55:46;;;;;;;10.10;9.30;;;7.50;63.00;;;;;;5115879;28;20203;-54
2022/04/20 03:58:13;;;;;;;11.60;10.90;;;7.50;63.20;;;;;;5115748;27;20247;-56
2022/04/20 04:00:40;;;;;;;11.52;10.80;;;7.40;62.90;;;;;;5114339;28;20223;-55
2022/04/20 04:03:07;;;;;;;10.32;9.63;;;7.50;62.40;;;;;;5115514;28;20238;-56
2022/04/20 04:05:34;;;;;;;10.07;9.32;;;7.40;63.30;;;;;;5115729;28;20202;-55
2022/04/20 04:08:01;;;;;;;12.48;11.68;;;7.30;63.00;;;;;;5115656;28;20205;-56
2022/04/20 04:10:28;;;;;;;9.15;8.55;;;7.20;63.90;;;;;;5115480;28;20227;-55
2022/04/20 04:12:56;;;;;;;12.38;11.63;;;7.20;63.30;;;;;;5115328;28;20200;-54
2022/04/20 04:15:23;;;;;;;12.07;11.25;;;7.20;62.70;;;;;;5114271;28;20241;-55
2022/04/20 04:17:54;;;;;;;11.50;10.65;;;7.20;63.20;;;;;;5115334;28;20220;-56
2022/04/20 04:20:21;;;;;;;10.95;10.15;;;7.20;63.90;;;;;;5115073;28;20662;-56
2022/04/20 04:22:49;;;;;;;12.43;11.63;;;7.30;63.00;;;;;;5115239;28;20283;-56
2022/04/20 04:25:16;;;;;;;12.10;11.40;;;7.30;63.00;;;;;;5115253;28;20231;-55
2022/04/20 04:27:43;;;;;;;11.80;11.00;;;7.40;62.60;;;;;;5115250;28;20199;-55
2022/04/20 04:30:12;;;;;;;12.15;11.25;;;7.40;62.00;;;;;;5113912;28;20268;-55
2022/04/20 04:32:39;;;;;;;10.90;10.10;;;7.30;63.30;;;;;;5114978;28;20226;-55
2022/04/20 04:35:08;;;;;;;11.20;10.50;;;7.20;63.50;;;;;;5114935;28;20216;-55
2022/04/20 04:37:35;;;;;;;12.18;11.38;;;7.20;63.80;;;;;;5115120;28;20602;-54
2022/04/20 04:40:02;;;;;;;10.45;9.63;;;7.10;64.00;;;;;;5114827;28;20231;-54
2022/04/20 04:42:29;;;;;;;12.10;11.30;;;7.00;63.90;;;;;;5114836;28;20287;-54
2022/04/20 04:48:36;;;;;;;13.35;12.45;;;6.90;64.10;;;;;;5113295;28;20232;-55
2022/04/20 04:50:40;;;;;;;12.68;11.77;;;7.00;63.40;;;;;;5071571;28;20656;-54
2022/04/20 04:53:07;;;;;;;12.70;11.80;;;7.00;63.50;;;;;;5104275;28;20295;-55
2022/04/20 04:55:37;;;;;;;13.25;12.35;;;6.90;64.30;;;;;;5114620;28;20227;-54
2022/04/20 04:58:04;;;;;;;10.70;9.85;;;7.00;64.00;;;;;;5114669;28;20242;-55
2022/04/20 05:00:31;;;;;;;11.25;10.43;;;7.00;63.90;;;;;;5113245;28;20286;-54
2022/04/20 05:02:59;;;;;;;12.50;11.50;;;7.00;64.10;;;;;;5114317;28;20210;-55
2022/04/20 05:05:26;;;;;;;11.68;10.88;;;7.00;63.60;;;;;;5114146;28;20263;-55
2022/04/20 05:07:54;;;;;;;8.70;8.10;;;7.00;63.20;;;;;;5114270;28;20199;-55
2022/04/20 05:10:21;;;;;;;10.90;10.02;;;7.00;63.70;;;;;;5114365;28;20207;-53
2022/04/20 05:12:48;;;;;;;12.90;12.00;;;6.90;63.90;;;;;;5114345;28;20260;-55
2022/04/20 05:15:15;;;;;;;13.02;12.07;;;6.90;64.90;;;;;;5112852;28;20226;-55
2022/04/20 05:17:42;;;;;;;12.40;11.50;;;7.00;64.70;;;;;;5113944;28;20218;-54
2022/04/20 05:20:12;;;;;;;11.10;10.15;;;7.00;64.60;;;;;;5113894;28;20261;-54
2022/04/20 05:22:39;;;;;;;13.63;12.63;;;7.00;64.20;;;;;;5114108;28;20211;-55
2022/04/20 05:25:07;;;;;;;13.30;12.30;;;7.10;64.00;;;;;;5113981;28;20231;-55
2022/04/20 05:27:33;;;;;;;13.70;12.93;;;7.10;64.90;;;;;;5113980;28;20290;-55
2022/04/20 05:30:04;;;;;;;10.73;9.63;;;7.10;65.20;;;;;;5112645;28;20298;-55
2022/04/20 05:32:31;;;;;;;12.70;11.77;;;7.10;65.60;;;;;;5113976;28;20214;-55
2022/04/20 05:34:58;;;;;;;11.77;10.98;;;7.00;65.70;;;;;;5113648;28;20206;-55
2022/04/20 05:42:55;;;;;;;13.00;12.00;;;7.10;67.00;;;;;;5113667;28;20211;-56
2022/04/20 05:45:22;;;;;;;14.55;13.65;;;7.10;66.60;;;;;;5112370;28;20258;-54
2022/04/20 05:47:49;;;;;;;11.63;10.82;;;7.00;66.80;;;;;;5113640;28;20242;-56
2022/04/20 05:50:16;;;;;;;10.32;9.63;;;7.10;65.80;;;;;;5113050;28;20206;-53
2022/04/20 05:52:44;;;;;;;12.40;11.63;;;7.20;64.80;;;;;;5113484;28;20195;-56
2022/04/20 05:55:11;;;;;;;13.45;12.45;;;7.20;64.60;;;;;;5113432;28;20654;-56
2022/04/20 05:57:38;;;;;;;12.60;11.80;;;7.30;64.80;;;;;;5113450;28;20210;-53
2022/04/20 06:00:06;;;;;;;11.98;11.18;;;7.30;64.60;;;;;;5112424;28;20563;-56
2022/04/20 06:02:33;;;;;;;10.75;9.95;;;7.30;65.20;;;;;;5113343;28;20258;-54
2022/04/20 06:05:00;;;;;;;12.90;12.10;;;7.30;64.40;;;;;;5113287;28;20263;-53
2022/04/20 06:07:27;;;;;;;12.93;11.88;;;7.20;64.70;;;;;;5113479;28;20214;-56
2022/04/20 06:09:55;;;;;;;11.70;10.90;;;7.10;64.80;;;;;;5113189;28;20295;-56
2022/04/20 06:12:22;;;;;;;12.43;11.73;;;7.20;64.40;;;;;;5113577;28;20306;-56
2022/04/20 06:14:49;;;;;;;12.73;11.93;;;7.30;64.50;;;;;;5111798;28;20277;-54
2022/04/20 06:17:16;;;;;;;12.82;12.00;;;7.30;64.50;;;;;;5113144;28;20291;-55
2022/04/20 06:19:43;;;;;;;12.65;11.55;;;7.20;63.80;;;;;;5112907;28;20719;-56
2022/04/20 06:22:10;;;;;;;11.27;10.38;;;7.30;64.70;;;;;;5113118;28;20210;-55
2022/04/20 06:24:37;;;;;;;12.10;11.30;;;7.40;64.90;;;;;;5113071;28;20258;-55
2022/04/20 06:27:07;;;;;;;10.25;9.65;;;7.50;63.60;;;;;;5113093;28;20694;-56
2022/04/20 06:29:34;;;;;;;12.60;11.80;;;7.60;63.80;;;;;;5111894;28;20664;-54
2022/04/20 06:32:01;;;;;;;12.73;11.82;;;7.70;63.20;;;;;;5112995;28;20204;-56
2022/04/20 06:34:29;;;;;;;12.90;11.93;;;7.70;63.00;;;;;;5112933;28;20208;-57
2022/04/20 06:36:57;;;;;;;12.55;11.40;;;7.70;63.60;;;;;;5112968;28;20231;-55
2022/04/20 06:39:24;;;;;;;12.10;11.20;;;7.50;63.40;;;;;;5112909;28;20203;-54
2022/04/20 06:41:51;;;;;;;12.27;11.57;;;7.40;64.10;;;;;;5112935;28;20196;-55
2022/04/20 06:44:19;;;;;;;12.00;11.10;;;7.40;62.60;;;;;;5111632;28;21142;-54
2022/04/20 06:46:46;;;;;;;11.43;10.60;;;7.30;64.10;;;;;;5113012;28;20209;-56
2022/04/20 06:49:14;;;;;;;12.07;11.38;;;7.40;64.70;;;;;;5112798;28;20206;-56
2022/04/20 06:59:55;;;;;;;11.82;10.93;;;7.80;63.70;;;;;;5111485;28;20204;-55
2022/04/20 07:02:22;;;;;;;12.43;11.52;;;7.90;63.10;;;;;;5113635;28;20203;-54
2022/04/20 07:04:49;;;;;;;12.52;11.70;;;7.90;63.20;;;;;;5116385;28;20283;-54
2022/04/20 07:07:16;;;;;;;11.43;10.65;;;7.90;62.90;;;;;;5116332;28;20694;-54
2022/04/20 07:09:43;;;;;;;10.07;9.27;;;8.00;62.10;;;;;;5116545;28;20195;-55
2022/04/20 07:12:10;;;;;;;12.32;11.52;;;8.20;62.40;;;;;;5116710;28;20209;-56
2022/04/20 07:14:37;;;;;;;12.40;11.48;;;8.20;61.50;;;;;;5115131;28;20207;-55
2022/04/20 07:17:07;;;;;;;12.30;11.45;;;8.30;61.60;;;;;;5116556;28;20303;-55
2022/04/20 07:19:34;;;;;;;12.63;11.73;;;8.30;61.50;;;;;;5116197;28;20589;-55
2022/04/20 07:22:01;;;;;;;12.48;11.65;;;8.30;62.30;;;;;;5116392;28;20239;-55
2022/04/20 07:24:28;;;;;;;12.90;12.02;;;8.30;61.10;;;;;;5116224;28;20315;-55
2022/04/20 07:26:55;;;;;;;12.45;11.65;;;8.30;60.50;;;;;;5116348;28;20202;-55
2022/04/20 07:29:22;;;;;;;10.73;9.82;;;8.40;61.40;;;;;;5115161;28;20547;-55
2022/04/20 07:31:49;;;;;;;12.50;11.70;;;8.50;60.20;;;;;;5116208;28;20299;-55
2022/04/20 07:34:17;;;;;;;11.10;10.40;;;8.50;62.10;;;;;;5116063;28;20201;-55
2022/04/20 07:36:44;;;;;;;12.32;11.63;;;8.60;60.70;;;;;;5116210;28;20242;-54
2022/04/20 07:39:10;;;;;;;9.40;8.80;;;8.70;60.30;;;;;;5116177;28;20208;-55
2022/04/20 07:41:38;;;;;;;11.20;10.45;;;8.80;59.50;;;;;;5115999;28;20204;-55
2022/04/20 07:44:05;;;;;;;12.48;11.60;;;8.90;59.20;;;;;;5114798;28;20259;-56
2022/04/20 07:46:32;;;;;;;11.32;10.57;;;8.90;59.10;;;;;;5115931;28;20268;-55
2022/04/20 07:50:17;;;;;;;12.63;11.55;;;9.00;59.70;;;;;;5115817;28;20223;-56
2022/04/20 07:51:47;;;;;;;13.00;12.13;;;8.90;59.80;;;;;;5115728;28;20553;-56
2022/04/20 07:54:14;;;;;;;12.75;11.85;;;9.00;59.60;;;;;;5115886;28;20805;-56
2022/04/20 07:56:41;;;;;;;14.25;13.35;;;9.10;59.20;;;;;;5115965;28;20208;-56
2022/04/20 07:59:07;;;;;;;12.07;11.15;;;9.20;58.90;;;;;;5114532;28;20201;-56
2022/04/20 08:01:34;;;;;;;10.75;10.05;;;9.20;59.50;;;;;;5115734;28;20232;-56
2022/04/20 08:04:01;;;;;;;13.63;12.82;;;9.30;58.80;;;;;;5115485;28;20203;-56
2022/04/20 08:06:30;;;;;;;13.20;12.32;;;9.30;59.50;;;;;;5115576;28;20268;-56
2022/04/20 08:08:59;;;;;;;12.43;11.63;;;9.40;58.70;;;;;;5115525;28;20818;-57
2022/04/20 08:11:26;;;;;;;12.98;11.95;;;9.50;58.50;;;;;;5115622;28;20209;-56
2022/04/20 08:14:11;;;;;;;13.02;12.10;;;9.60;58.50;;;;;;5115219;28;20233;-56
2022/04/20 08:16:39;;;;;;;13.50;12.50;;;9.50;59.20;;;;;;5115507;28;20201;-56
2022/04/20 08:19:07;;;;;;;14.13;13.23;;;9.60;58.90;;;;;;5114998;28;20685;-55
2022/04/20 08:21:34;;;;;;;14.38;13.27;;;9.70;58.60;;;;;;5115375;28;20237;-56
2022/04/20 08:24:02;;;;;;;13.88;12.80;;;9.80;58.20;;;;;;5115345;28;20300;-56
2022/04/20 08:26:29;;;;;;;13.07;12.27;;;9.60;57.30;;;;;;5115261;28;20344;-56
2022/04/20 08:28:56;;;;;;;14.10;13.23;;;9.70;58.50;;;;;;5115314;28;20296;-56
2022/04/20 08:31:23;;;;;;;14.25;13.30;;;9.80;57.90;;;;;;5114088;28;20567;-55
2022/04/20 08:33:51;;;;;;;14.68;13.57;;;9.90;58.20;;;;;;5114824;28;20201;-56
2022/04/20 08:36:18;;;;;;;13.13;12.23;;;10.00;57.70;;;;;;5115092;28;20291;-54
2022/04/20 08:38:45;;;;;;;12.82;11.93;;;10.20;55.80;;;;;;5115103;28;20210;-55
2022/04/20 08:41:16;;;;;;;13.82;12.73;;;10.30;55.80;;;;;;5115047;28;20201;-56
2022/04/20 08:43:43;;;;;;;13.85;12.85;;;10.30;55.50;;;;;;5114994;28;20229;-54
2022/04/20 08:46:10;;;;;;;13.43;12.52;;;10.30;56.70;;;;;;5113307;28;20234;-56
2022/04/20 08:48:37;;;;;;;13.02;12.23;;;10.40;55.80;;;;;;5114775;28;20254;-56
2022/04/20 08:51:06;;;;;;;12.43;11.63;;;10.40;56.40;;;;;;5114603;28;20205;-55
2022/04/20 08:53:33;;;;;;;14.18;13.07;;;10.40;56.30;;;;;;5114724;28;20305;-53
2022/04/20 08:58:47;;;;;;;13.25;12.10;;;10.70;56.20;;;;;;5114334;28;20638;-55
2022/04/20 09:01:15;;;;;;;13.52;12.48;;;10.70;55.80;;;;;;5113090;28;20626;-56
2022/04/20 09:03:43;;;;;;;13.20;12.40;;;10.90;55.20;;;;;;5114400;28;20201;-56
2022/04/20 09:06:11;;;;;;;11.65;10.95;;;10.90;55.10;;;;;;5114161;28;20755;-54
2022/04/20 09:08:38;;;;;;;13.57;12.68;;;11.00;54.80;;;;;;5114553;28;20202;-56
2022/04/20 09:11:06;;;;;;;13.30;12.50;;;11.00;54.40;;;;;;5114302;28;20206;-54
2022/04/20 09:13:35;;;;;;;12.85;11.95;;;10.90;54.90;;;;;;5114247;28;20625;-55
2022/04/20 09:16:07;;;;;;;12.90;12.05;;;11.10;54.50;;;;;;5112836;28;20201;-57
2022/04/20 09:18:35;;;;;;;11.70;10.85;;;11.20;53.90;;;;;;5114192;28;20668;-54
2022/04/20 09:21:06;;;;;;;14.38;13.27;;;11.30;54.80;;;;;;5113624;28;20280;-56
2022/04/20 09:23:33;;;;;;;13.88;13.07;;;11.20;54.20;;;;;;5114185;28;20203;-55
2022/04/20 09:26:08;;;;;;;12.20;11.50;;;11.30;53.20;;;;;;5113281;28;20228;-56
2022/04/20 09:28:36;;;;;;;12.85;12.15;;;11.00;52.00;;;;;;5113962;28;20198;-54
2022/04/20 09:31:04;;;;;;;13.00;12.20;;;11.10;53.60;;;;;;5112506;28;20196;-55
2022/04/20 09:33:49;;;;;;;13.13;12.43;;;11.30;53.20;;;;;;5113919;28;20214;-55
2022/04/20 09:36:36;;;;;;;13.52;12.65;;;11.40;52.00;;;;;;5113686;28;20230;-57
2022/04/20 09:39:04;;;;;;;13.32;12.52;;;11.50;51.00;;;;;;5113779;28;20205;-54
2022/04/20 09:41:30;;;;;;;13.75;12.85;;;11.60;51.50;;;;;;5113732;28;20206;-55
2022/04/20 09:44:11;;;;;;;13.27;12.48;;;11.80;50.30;;;;;;5113702;28;20340;-57
2022/04/20 09:49:38;;;;;;;12.07;11.38;;;12.00;50.80;;;;;;5113503;28;20244;-54
2022/04/20 09:52:10;;;;;;;13.00;12.30;;;12.10;50.40;;;;;;5113554;28;20334;-57
2022/04/20 09:54:37;;;;;;;13.00;12.20;;;12.10;50.10;;;;;;5113538;28;20204;-56
2022/04/20 09:57:11;;;;;;;11.75;10.95;;;12.20;50.00;;;;;;5113466;28;20287;-55
2022/04/20 09:59:39;;;;;;;12.43;11.73;;;12.20;48.30;;;;;;5112109;28;20290;-56
2022/04/20 10:02:12;;;;;;;13.27;12.55;;;12.20;48.20;;;;;;5113449;28;20200;-56
2022/04/20 10:04:43;;;;;;;12.52;11.73;;;12.30;49.40;;;;;;5113226;28;20569;-56
2022/04/20 10:07:10;;;;;;;11.60;10.82;;;12.40;47.70;;;;;;5113291;28;20262;-54
2022/04/20 10:09:36;;;;;;;12.85;12.05;;;12.50;49.20;;;;;;5113228;28;20206;-56
2022/04/20 10:12:04;;;;;;;12.30;11.68;;;12.60;45.90;;;;;;5113288;28;20686;-55
2022/04/20 10:17:22;;;;;;;12.93;12.15;;;12.80;45.90;;;;;;5113352;28;20201;-53
2022/04/20 10:19:50;;;;;;;12.65;11.93;;;12.80;45.70;;;;;;5112869;28;20278;-56
2022/04/20 10:22:20;;;;;;;13.18;12.48;;;12.80;46.60;;;;;;5113119;28;20200;-56
2022/04/20 10:24:51;;;;;;;13.23;12.38;;;12.90;46.80;;;;;;5113180;28;20199;-55
2022/04/20 10:27:23;;;;;;;13.18;12.48;;;12.60;43.80;;;;;;5113084;28;20231;-55
2022/04/20 10:30:29;;;;;;;13.45;12.13;;;12.70;48.10;;;;;;5111820;28;20204;-56
2022/04/20 10:33:06;;;;;;;12.15;11.45;;;12.80;45.80;;;;;;5111958;28;20234;-53
2022/04/20 10:35:54;;;;;;;13.52;12.75;;;12.90;47.30;;;;;;5112898;28;20215;-55
2022/04/20 10:38:21;;;;;;;12.98;12.27;;;13.20;46.20;;;;;;5117376;28;20210;-56
2022/04/20 10:41:06;;;;;;;13.35;12.45;;;13.20;44.20;;;;;;5117313;28;20237;-55
2022/04/20 10:43:35;;;;;;;13.13;12.32;;;13.10;45.30;;;;;;5117218;28;20202;-55
2022/04/20 10:46:04;;;;;;;12.23;11.50;;;13.20;45.30;;;;;;5115868;28;20230;-55
2022/04/20 10:48:51;;;;;;;10.52;9.82;;;13.50;44.20;;;;;;5117025;28;20676;-55
2022/04/20 10:51:22;;;;;;;12.25;11.55;;;13.70;43.20;;;;;;5116934;28;20456;-54
2022/04/20 10:53:50;;;;;;;14.05;13.15;;;13.90;44.00;;;;;;5117017;28;20206;-56
2022/04/20 10:56:18;;;;;;;12.70;11.82;;;14.10;44.00;;;;;;5116942;28;20231;-55
2022/04/20 10:58:53;;;;;;;12.63;11.93;;;14.20;42.50;;;;;;5116954;28;20204;-57
2022/04/20 11:01:21;;;;;;;12.85;12.05;;;14.10;43.30;;;;;;5115589;28;20252;-56
2022/04/20 11:04:10;;;;;;;14.95;13.95;;;14.20;44.30;;;;;;5116780;28;20227;-56
2022/04/20 11:07:15;;;;;;;12.95;12.15;;;14.40;41.50;;;;;;5112173;28;20276;-56
2022/04/20 11:10:08;;;;;;;11.52;10.57;;;14.50;42.10;;;;;;5116656;28;20294;-56
2022/04/20 11:18:43;;;;;;;13.13;12.17;;;15.00;43.80;;;;;;5116468;28;20521;-55
2022/04/20 11:21:19;;;;;;;12.60;11.90;;;16.50;39.90;;;;;;5116333;28;20473;-56
2022/04/20 11:23:57;;;;;;;13.47;12.50;;;18.50;35.30;;;;;;5116351;28;20452;-55
2022/04/20 11:26:28;;;;;;;13.70;12.90;;;20.00;35.70;;;;;;5116249;28;20496;-56
2022/04/20 11:28:57;;;;;;;12.27;11.60;;;21.30;32.50;;;;;;5116187;28;20450;-56
2022/04/20 11:31:24;;;;;;;12.07;11.47;;;22.70;32.60;;;;;;5114973;28;20453;-56
2022/04/20 11:33:53;;;;;;;12.73;12.13;;;23.70;29.10;;;;;;5116242;28;20445;-57
2022/04/20 11:36:20;;;;;;;13.43;12.73;;;24.30;27.80;;;;;;5116027;28;20449;-56
2022/04/20 11:38:49;;;;;;;12.40;11.80;;;24.00;28.90;;;;;;5116298;28;20473;-57
2022/04/20 11:41:17;;;;;;;14.40;13.30;;;24.00;29.50;;;;;;5116111;28;20454;-56
2022/04/20 11:43:45;;;;;;;13.10;12.40;;;23.90;27.50;;;;;;5116002;28;20449;-56
2022/04/20 11:46:14;;;;;;;12.93;12.33;;;23.40;26.90;;;;;;5114488;28;20979;-56
2022/04/20 11:48:53;;;;;;;13.33;12.53;;;23.60;30.00;;;;;;5115345;28;20779;-56
2022/04/20 11:51:27;;;;;;;13.90;13.07;;;24.00;27.00;;;;;;5115943;28;20919;-56
2022/04/20 11:53:55;;;;;;;13.97;13.27;;;24.00;28.80;;;;;;5115812;28;20445;-55
2022/04/20 11:56:36;;;;;;;13.13;12.43;;;23.90;27.00;;;;;;5115861;28;20441;-56
2022/04/20 11:59:07;;;;;;;13.50;12.80;;;24.00;27.90;;;;;;5115418;28;20449;-56
2022/04/20 12:01:35;;;;;;;13.60;12.80;;;24.40;28.10;;;;;;5115760;28;20460;-56
2022/04/20 12:04:10;;;;;;;13.87;13.17;;;24.70;26.50;;;;;;5115613;28;20454;-56
2022/04/20 12:06:37;;;;;;;13.33;12.63;;;23.80;27.80;;;;;;5115379;28;20495;-56
2022/04/20 12:09:07;;;;;;;12.40;11.50;;;23.70;27.90;;;;;;5115539;28;20459;-56
2022/04/20 12:11:35;;;;;;;13.73;13.03;;;24.00;27.40;;;;;;5115497;28;20869;-56
2022/04/20 12:14:02;;;;;;;13.93;13.20;;;24.10;26.90;;;;;;5115058;28;20548;-56
2022/04/20 12:16:35;;;;;;;12.07;11.43;;;24.00;25.80;;;;;;5114519;28;20451;-56
2022/04/20 12:19:02;;;;;;;13.70;12.90;;;23.60;26.70;;;;;;5115167;28;20444;-56
2022/04/20 12:21:43;;;;;;;12.83;12.23;;;22.70;26.60;;;;;;5114991;28;20506;-57
2022/04/20 12:24:12;;;;;;;12.93;12.23;;;22.20;28.90;;;;;;5115294;28;20967;-56
2022/04/20 12:26:43;;;;;;;14.47;13.63;;;22.00;29.00;;;;;;5115153;28;20497;-56
2022/04/20 12:29:12;;;;;;;11.90;11.23;;;21.70;29.70;;;;;;5113881;28;20532;-56
2022/04/20 12:31:44;;;;;;;12.67;11.97;;;21.80;28.70;;;;;;5114985;28;20457;-56
2022/04/20 12:34:14;;;;;;;14.00;13.10;;;21.80;28.30;;;;;;5115149;28;20940;-56
2022/04/20 12:36:56;;;;;;;13.73;13.03;;;21.50;29.70;;;;;;5114865;28;20453;-56
2022/04/20 12:39:34;;;;;;;13.20;12.50;;;21.10;28.30;;;;;;5115522;28;20453;-56
2022/04/20 12:42:05;;;;;;;14.00;13.30;;;21.00;29.10;;;;;;5114767;28;20936;-56
2022/04/20 12:44:37;;;;;;;13.53;12.73;;;20.80;28.10;;;;;;5113732;28;20442;-56
2022/04/20 12:47:34;;;;;;;11.47;10.77;;;20.50;29.10;;;;;;5114830;28;20503;-56
2022/04/20 12:50:23;;;;;;;13.87;13.17;;;20.10;28.50;;;;;;5114644;28;20479;-56
2022/04/20 12:52:56;;;;;;;13.90;13.10;;;19.50;30.20;;;;;;5114637;28;20454;-56
2022/04/20 12:55:23;;;;;;;13.30;12.60;;;19.30;29.50;;;;;;5114707;28;20441;-56
2022/04/20 13:03:37;;;;;;;12.77;11.80;;;18.30;32.50;;;;;;5114588;28;20436;-55
2022/04/20 13:06:07;;;;;;;9.50;9.00;;;18.40;31.20;;;;;;5114245;28;20540;-55
2022/04/20 13:08:34;;;;;;;12.27;11.47;;;18.30;29.90;;;;;;5114328;28;20441;-57
2022/04/20 13:11:01;;;;;;;12.70;12.10;;;18.00;30.80;;;;;;5114467;28;20524;-55
2022/04/20 13:13:28;;;;;;;13.23;12.53;;;17.90;30.20;;;;;;5114207;28;20466;-56
2022/04/20 13:15:55;;;;;;;10.90;10.30;;;17.90;29.60;;;;;;5113057;28;20544;-55
2022/04/20 13:18:22;;;;;;;10.37;9.77;;;18.10;29.70;;;;;;5114260;28;20472;-56
2022/04/20 13:20:51;;;;;;;12.13;11.53;;;18.20;29.50;;;;;;5113970;28;20556;-55